Comox Airport
CYQQ : rendu visible

Aérodrome :











RETROUVEZ-NOUS SUR...

 
LOGIN :

S'inscrire | Disclaimer

   EN    FR    IT 

 









Légende :    VFR   VFR Marginal   IFR   IFR Intensif   IFR Très Intensif
Visi : 
Plafond : 
>= 8 km
>= 3000ft
5 à 8 km
1000 à 3000 ft
1500m à 5 km
500 à 1000 ft
800 à 1500m
200 à 500 ft
< 800m
< 200 ft
Symboles :   Orages  Brouillard  Fortes neiges  Fortes précipitations  Vent > 20 kt






- Altitude de l'aérodrome : 84 ft
- Code IATA : YQQ


CYQQ - Comox

DERNIER METAR :
  • 221600Z 35004KT 20SM FEW030 FEW070 FEW230 03/01 A3013 RMK SC1AC1CI1 SLP206

METARs EXPIRÉS :
  • 221500Z 29004KT 20SM FEW030 SCT080 SCT230 03/01 A3011 RMK SC2AC2CI1 SLP199
  • 221400Z 30004KT 20SM FEW030 BKN080 03/02 A3011 RMK SC2AC4 SLP197

TAF TAF CYQQ
Valide du 22 à 12h jusqu'au 23 à 12h UTC


221139Z 2212/2312 30006KT P6SM SCT012 SCT040 SCT200
TEMPO 2212/2219 BKN012 BKN030 BKN200
FM221900 VRB03KT P6SM FEW012 SCT050 BKN200
FM230300 13008KT P6SM BKN050 BKN150
FM230600 13012G22KT P6SM -RA FEW006 SCT012 OVC025
TEMPO 2306/2312 4SM -RA BR SCT006 OVC012
BECMG 2308/2310 13020G30KT RMK NXT FCST BY 221800Z



MET'MAP, la Météo Aéronautique d'un coup d'oeil ! - Copyright ORBIFLY Décembre 2007 - Disclaimer

ORBIFLY MET'MAP TEAM :

Programmation & Développement : Alexandra Zaïnal
Sur une idée originale de : Baudouin d'Aumeries
Assistance à la programmation : Marc-Olivier Méhu
Soutien technique & logistique : Manuel Goepfert

Contact : metmap@orbifly.com




SOURCES & CREDITS :

   NOAA       Earth
Advisory